sensor_id;sensor_type;location;lat;lon;timestamp;temperature;humidity
19340;HTU21D;9804;52.350;6.684;2023-09-12T00:00:41;23.44;118.99
19340;HTU21D;9804;52.350;6.684;2023-09-12T00:03:08;23.46;118.99
19340;HTU21D;9804;52.350;6.684;2023-09-12T00:05:33;23.40;118.99
19340;HTU21D;9804;52.350;6.684;2023-09-12T00:07:58;23.54;118.99
19340;HTU21D;9804;52.350;6.684;2023-09-12T00:10:24;23.40;118.99
19340;HTU21D;9804;52.350;6.684;2023-09-12T00:12:50;23.20;118.99
19340;HTU21D;9804;52.350;6.684;2023-09-12T00:15:15;23.28;118.99
19340;HTU21D;9804;52.350;6.684;2023-09-12T00:17:41;23.39;118.99
19340;HTU21D;9804;52.350;6.684;2023-09-12T00:20:07;23.26;118.99
19340;HTU21D;9804;52.350;6.684;2023-09-12T00:22:33;23.50;118.99
19340;HTU21D;9804;52.350;6.684;2023-09-12T00:24:58;23.31;118.99
19340;HTU21D;9804;52.350;6.684;2023-09-12T00:27:24;23.41;118.99
19340;HTU21D;9804;52.350;6.684;2023-09-12T00:29:49;23.65;118.99
19340;HTU21D;9804;52.350;6.684;2023-09-12T00:32:15;23.53;118.99
19340;HTU21D;9804;52.350;6.684;2023-09-12T00:34:40;23.20;118.99
19340;HTU21D;9804;52.350;6.684;2023-09-12T00:37:05;23.26;118.99
19340;HTU21D;9804;52.350;6.684;2023-09-12T00:39:31;23.30;118.99
19340;HTU21D;9804;52.350;6.684;2023-09-12T00:41:56;23.25;118.99
19340;HTU21D;9804;52.350;6.684;2023-09-12T00:44:22;23.40;118.99
19340;HTU21D;9804;52.350;6.684;2023-09-12T00:46:48;23.46;118.99
19340;HTU21D;9804;52.350;6.684;2023-09-12T00:49:15;23.23;118.99
19340;HTU21D;9804;52.350;6.684;2023-09-12T00:51:42;23.32;118.99
19340;HTU21D;9804;52.350;6.684;2023-09-12T00:54:09;23.38;118.99
19340;HTU21D;9804;52.350;6.684;2023-09-12T00:56:35;23.28;118.99
19340;HTU21D;9804;52.350;6.684;2023-09-12T00:59:01;23.38;118.99
19340;HTU21D;9804;52.350;6.684;2023-09-12T01:01:27;23.36;118.99
19340;HTU21D;9804;52.350;6.684;2023-09-12T01:03:54;23.34;118.99
19340;HTU21D;9804;52.350;6.684;2023-09-12T01:06:22;23.29;118.99
19340;HTU21D;9804;52.350;6.684;2023-09-12T01:08:48;23.31;118.99
19340;HTU21D;9804;52.350;6.684;2023-09-12T01:11:14;23.35;118.99
19340;HTU21D;9804;52.350;6.684;2023-09-12T01:13:41;23.41;118.99
19340;HTU21D;9804;52.350;6.684;2023-09-12T01:16:06;23.32;118.99
19340;HTU21D;9804;52.350;6.684;2023-09-12T01:18:32;23.37;118.99
19340;HTU21D;9804;52.350;6.684;2023-09-12T01:29:21;23.18;118.99
19340;HTU21D;9804;52.350;6.684;2023-09-12T01:31:49;23.25;118.99
19340;HTU21D;9804;52.350;6.684;2023-09-12T01:34:16;23.21;118.99
19340;HTU21D;9804;52.350;6.684;2023-09-12T01:36:42;23.15;118.99
19340;HTU21D;9804;52.350;6.684;2023-09-12T01:39:08;23.18;118.99
19340;HTU21D;9804;52.350;6.684;2023-09-12T01:41:35;23.10;118.99
19340;HTU21D;9804;52.350;6.684;2023-09-12T01:44:05;23.07;118.99
19340;HTU21D;9804;52.350;6.684;2023-09-12T01:46:32;23.13;118.99
19340;HTU21D;9804;52.350;6.684;2023-09-12T01:49:00;23.07;118.99
19340;HTU21D;9804;52.350;6.684;2023-09-12T01:51:26;23.11;118.99
19340;HTU21D;9804;52.350;6.684;2023-09-12T01:53:53;23.10;118.99
19340;HTU21D;9804;52.350;6.684;2023-09-12T01:56:20;23.14;118.99
19340;HTU21D;9804;52.350;6.684;2023-09-12T01:58:46;23.10;118.99
19340;HTU21D;9804;52.350;6.684;2023-09-12T02:01:11;23.05;118.99
19340;HTU21D;9804;52.350;6.684;2023-09-12T02:03:36;22.98;118.99
19340;HTU21D;9804;52.350;6.684;2023-09-12T02:06:02;22.94;118.99
19340;HTU21D;9804;52.350;6.684;2023-09-12T02:08:27;22.81;118.99
19340;HTU21D;9804;52.350;6.684;2023-09-12T02:10:53;22.70;118.99
19340;HTU21D;9804;52.350;6.684;2023-09-12T02:13:18;22.66;118.99
19340;HTU21D;9804;52.350;6.684;2023-09-12T02:15:43;22.65;118.99
19340;HTU21D;9804;52.350;6.684;2023-09-12T02:18:09;22.68;118.99
19340;HTU21D;9804;52.350;6.684;2023-09-12T02:20:38;22.57;118.99
19340;HTU21D;9804;52.350;6.684;2023-09-12T02:23:04;22.65;118.99
19340;HTU21D;9804;52.350;6.684;2023-09-12T02:25:29;22.65;118.99
19340;HTU21D;9804;52.350;6.684;2023-09-12T02:27:54;22.57;118.99
19340;HTU21D;9804;52.350;6.684;2023-09-12T02:30:20;22.56;118.99
19340;HTU21D;9804;52.350;6.684;2023-09-12T02:32:45;22.60;118.99
19340;HTU21D;9804;52.350;6.684;2023-09-12T02:35:11;22.41;118.99
19340;HTU21D;9804;52.350;6.684;2023-09-12T02:37:36;22.35;118.99
19340;HTU21D;9804;52.350;6.684;2023-09-12T02:40:02;22.41;118.99
19340;HTU21D;9804;52.350;6.684;2023-09-12T02:42:30;22.41;118.99
19340;HTU21D;9804;52.350;6.684;2023-09-12T02:44:55;22.43;118.99
19340;HTU21D;9804;52.350;6.684;2023-09-12T02:47:21;22.40;118.99
19340;HTU21D;9804;52.350;6.684;2023-09-12T02:49:46;22.41;118.99
19340;HTU21D;9804;52.350;6.684;2023-09-12T02:52:11;22.42;118.99
19340;HTU21D;9804;52.350;6.684;2023-09-12T02:54:37;22.33;118.99
19340;HTU21D;9804;52.350;6.684;2023-09-12T02:57:02;22.16;118.99
19340;HTU21D;9804;52.350;6.684;2023-09-12T02:59:29;22.04;118.99
19340;HTU21D;9804;52.350;6.684;2023-09-12T03:01:54;22.02;118.99
19340;HTU21D;9804;52.350;6.684;2023-09-12T03:04:20;22.05;118.99
19340;HTU21D;9804;52.350;6.684;2023-09-12T03:06:45;21.99;118.99
19340;HTU21D;9804;52.350;6.684;2023-09-12T03:09:10;21.94;118.99
19340;HTU21D;9804;52.350;6.684;2023-09-12T03:11:36;21.95;118.99
19340;HTU21D;9804;52.350;6.684;2023-09-12T03:14:02;21.94;118.99
19340;HTU21D;9804;52.350;6.684;2023-09-12T03:16:27;21.98;118.99
19340;HTU21D;9804;52.350;6.684;2023-09-12T03:18:53;22.09;118.99
19340;HTU21D;9804;52.350;6.684;2023-09-12T03:21:18;22.16;118.99
19340;HTU21D;9804;52.350;6.684;2023-09-12T03:23:43;22.18;118.99
19340;HTU21D;9804;52.350;6.684;2023-09-12T03:26:09;22.05;118.99
19340;HTU21D;9804;52.350;6.684;2023-09-12T03:28:34;22.08;118.99
19340;HTU21D;9804;52.350;6.684;2023-09-12T03:31:08;22.05;118.99
19340;HTU21D;9804;52.350;6.684;2023-09-12T03:33:33;21.96;118.99
19340;HTU21D;9804;52.350;6.684;2023-09-12T03:35:59;21.89;118.99
19340;HTU21D;9804;52.350;6.684;2023-09-12T03:38:24;21.94;118.99
19340;HTU21D;9804;52.350;6.684;2023-09-12T03:40:49;21.81;118.99
19340;HTU21D;9804;52.350;6.684;2023-09-12T03:43:15;21.84;118.99
19340;HTU21D;9804;52.350;6.684;2023-09-12T03:45:40;21.88;118.99
19340;HTU21D;9804;52.350;6.684;2023-09-12T03:48:06;21.80;118.99
19340;HTU21D;9804;52.350;6.684;2023-09-12T03:50:31;21.87;118.99
19340;HTU21D;9804;52.350;6.684;2023-09-12T03:52:56;21.74;118.99
19340;HTU21D;9804;52.350;6.684;2023-09-12T03:55:22;21.75;118.99
19340;HTU21D;9804;52.350;6.684;2023-09-12T03:57:47;21.70;118.99
19340;HTU21D;9804;52.350;6.684;2023-09-12T04:00:13;21.85;118.99
19340;HTU21D;9804;52.350;6.684;2023-09-12T04:02:38;21.80;118.99
19340;HTU21D;9804;52.350;6.684;2023-09-12T04:05:04;21.78;118.99
19340;HTU21D;9804;52.350;6.684;2023-09-12T04:07:29;21.67;118.99
19340;HTU21D;9804;52.350;6.684;2023-09-12T04:09:55;21.59;118.99
19340;HTU21D;9804;52.350;6.684;2023-09-12T04:12:20;21.52;118.99
19340;HTU21D;9804;52.350;6.684;2023-09-12T04:14:46;21.69;118.99
19340;HTU21D;9804;52.350;6.684;2023-09-12T04:17:11;21.75;118.99
19340;HTU21D;9804;52.350;6.684;2023-09-12T04:19:36;21.80;118.99
19340;HTU21D;9804;52.350;6.684;2023-09-12T04:22:02;21.81;118.99
19340;HTU21D;9804;52.350;6.684;2023-09-12T04:24:29;21.55;118.99
19340;HTU21D;9804;52.350;6.684;2023-09-12T04:26:55;21.80;118.99
19340;HTU21D;9804;52.350;6.684;2023-09-12T04:29:20;21.57;118.99
19340;HTU21D;9804;52.350;6.684;2023-09-12T04:31:45;21.67;118.99
19340;HTU21D;9804;52.350;6.684;2023-09-12T04:34:11;21.78;118.99
19340;HTU21D;9804;52.350;6.684;2023-09-12T04:36:36;21.65;118.99
19340;HTU21D;9804;52.350;6.684;2023-09-12T04:39:01;21.63;118.99
19340;HTU21D;9804;52.350;6.684;2023-09-12T04:41:27;21.72;118.99
19340;HTU21D;9804;52.350;6.684;2023-09-12T04:43:52;21.84;118.99
19340;HTU21D;9804;52.350;6.684;2023-09-12T04:46:18;21.87;118.99
19340;HTU21D;9804;52.350;6.684;2023-09-12T04:48:43;21.83;118.99
19340;HTU21D;9804;52.350;6.684;2023-09-12T04:51:09;21.99;118.99
19340;HTU21D;9804;52.350;6.684;2023-09-12T04:53:34;21.98;118.99
19340;HTU21D;9804;52.350;6.684;2023-09-12T04:56:03;22.03;118.99
19340;HTU21D;9804;52.350;6.684;2023-09-12T04:58:29;22.02;118.99
19340;HTU21D;9804;52.350;6.684;2023-09-12T05:00:54;22.02;118.99
19340;HTU21D;9804;52.350;6.684;2023-09-12T05:03:21;21.87;118.99
19340;HTU21D;9804;52.350;6.684;2023-09-12T05:05:49;21.55;118.99
19340;HTU21D;9804;52.350;6.684;2023-09-12T05:08:15;21.80;118.99
19340;HTU21D;9804;52.350;6.684;2023-09-12T05:10:41;21.80;118.99
19340;HTU21D;9804;52.350;6.684;2023-09-12T05:13:08;21.83;118.99
19340;HTU21D;9804;52.350;6.684;2023-09-12T05:15:34;21.94;118.99
19340;HTU21D;9804;52.350;6.684;2023-09-12T05:17:59;21.62;118.99
19340;HTU21D;9804;52.350;6.684;2023-09-12T05:20:24;21.69;118.99
19340;HTU21D;9804;52.350;6.684;2023-09-12T05:22:50;21.81;118.99
19340;HTU21D;9804;52.350;6.684;2023-09-12T05:25:15;21.64;118.99
19340;HTU21D;9804;52.350;6.684;2023-09-12T05:27:40;21.89;118.99
19340;HTU21D;9804;52.350;6.684;2023-09-12T05:30:06;21.99;118.99
19340;HTU21D;9804;52.350;6.684;2023-09-12T05:32:32;22.12;118.99
19340;HTU21D;9804;52.350;6.684;2023-09-12T05:34:57;22.14;118.99
19340;HTU21D;9804;52.350;6.684;2023-09-12T05:37:23;22.06;118.99
19340;HTU21D;9804;52.350;6.684;2023-09-12T05:39:48;21.94;118.99
19340;HTU21D;9804;52.350;6.684;2023-09-12T05:42:14;22.22;118.99
19340;HTU21D;9804;52.350;6.684;2023-09-12T05:44:45;22.29;118.99
19340;HTU21D;9804;52.350;6.684;2023-09-12T05:47:11;22.21;118.99
19340;HTU21D;9804;52.350;6.684;2023-09-12T05:49:37;22.33;118.99
19340;HTU21D;9804;52.350;6.684;2023-09-12T05:52:02;22.39;118.99
19340;HTU21D;9804;52.350;6.684;2023-09-12T05:54:28;22.41;118.99
19340;HTU21D;9804;52.350;6.684;2023-09-12T05:56:53;22.38;118.99
19340;HTU21D;9804;52.350;6.684;2023-09-12T05:59:19;22.37;118.99
19340;HTU21D;9804;52.350;6.684;2023-09-12T06:01:44;22.44;118.99
19340;HTU21D;9804;52.350;6.684;2023-09-12T06:04:10;22.31;118.99
19340;HTU21D;9804;52.350;6.684;2023-09-12T06:06:35;21.85;118.99
19340;HTU21D;9804;52.350;6.684;2023-09-12T06:09:01;22.24;118.99
19340;HTU21D;9804;52.350;6.684;2023-09-12T06:11:27;22.33;118.99
19340;HTU21D;9804;52.350;6.684;2023-09-12T06:13:52;22.47;118.99
19340;HTU21D;9804;52.350;6.684;2023-09-12T06:16:18;22.28;118.99
19340;HTU21D;9804;52.350;6.684;2023-09-12T06:18:43;22.16;118.99
19340;HTU21D;9804;52.350;6.684;2023-09-12T06:21:08;22.16;118.99
19340;HTU21D;9804;52.350;6.684;2023-09-12T06:23:34;22.21;118.99
19340;HTU21D;9804;52.350;6.684;2023-09-12T06:26:00;22.12;118.99
19340;HTU21D;9804;52.350;6.684;2023-09-12T06:28:30;22.34;118.99
19340;HTU21D;9804;52.350;6.684;2023-09-12T06:30:56;22.35;118.99
19340;HTU21D;9804;52.350;6.684;2023-09-12T06:33:27;22.44;118.99
19340;HTU21D;9804;52.350;6.684;2023-09-12T06:35:54;22.52;118.99
19340;HTU21D;9804;52.350;6.684;2023-09-12T06:38:20;22.64;118.99
19340;HTU21D;9804;52.350;6.684;2023-09-12T06:40:45;22.69;118.99
19340;HTU21D;9804;52.350;6.684;2023-09-12T06:43:13;22.88;118.99
19340;HTU21D;9804;52.350;6.684;2023-09-12T06:45:40;22.84;118.99
19340;HTU21D;9804;52.350;6.684;2023-09-12T06:48:05;22.87;118.99
19340;HTU21D;9804;52.350;6.684;2023-09-12T06:50:31;22.91;118.99
19340;HTU21D;9804;52.350;6.684;2023-09-12T06:52:56;22.79;118.99
19340;HTU21D;9804;52.350;6.684;2023-09-12T06:55:22;22.78;118.99
19340;HTU21D;9804;52.350;6.684;2023-09-12T06:57:47;22.73;118.99
19340;HTU21D;9804;52.350;6.684;2023-09-12T07:00:13;22.95;118.99
19340;HTU21D;9804;52.350;6.684;2023-09-12T07:02:39;23.08;118.99
19340;HTU21D;9804;52.350;6.684;2023-09-12T07:05:04;23.08;118.99
19340;HTU21D;9804;52.350;6.684;2023-09-12T07:07:30;22.93;118.99
19340;HTU21D;9804;52.350;6.684;2023-09-12T07:09:56;23.17;118.99
19340;HTU21D;9804;52.350;6.684;2023-09-12T07:12:22;23.18;118.99
19340;HTU21D;9804;52.350;6.684;2023-09-12T07:14:47;23.36;118.99
19340;HTU21D;9804;52.350;6.684;2023-09-12T07:17:12;23.42;118.99
19340;HTU21D;9804;52.350;6.684;2023-09-12T07:19:38;23.41;118.99
19340;HTU21D;9804;52.350;6.684;2023-09-12T07:22:03;23.42;118.99
19340;HTU21D;9804;52.350;6.684;2023-09-12T07:24:29;23.56;118.99
19340;HTU21D;9804;52.350;6.684;2023-09-12T07:26:54;23.39;118.99
19340;HTU21D;9804;52.350;6.684;2023-09-12T07:29:19;23.31;118.99
19340;HTU21D;9804;52.350;6.684;2023-09-12T07:31:45;23.21;118.99
19340;HTU21D;9804;52.350;6.684;2023-09-12T07:34:10;23.32;118.99
19340;HTU21D;9804;52.350;6.684;2023-09-12T07:36:37;23.27;118.99
19340;HTU21D;9804;52.350;6.684;2023-09-12T07:39:03;23.20;118.99
19340;HTU21D;9804;52.350;6.684;2023-09-12T07:41:29;23.12;118.99
19340;HTU21D;9804;52.350;6.684;2023-09-12T07:43:55;23.21;118.99
19340;HTU21D;9804;52.350;6.684;2023-09-12T07:46:20;23.26;118.99
19340;HTU21D;9804;52.350;6.684;2023-09-12T07:48:46;23.22;118.99
19340;HTU21D;9804;52.350;6.684;2023-09-12T07:51:15;23.41;118.99
19340;HTU21D;9804;52.350;6.684;2023-09-12T07:53:42;23.09;118.99
19340;HTU21D;9804;52.350;6.684;2023-09-12T07:56:08;23.43;118.99
19340;HTU21D;9804;52.350;6.684;2023-09-12T07:58:34;23.38;118.99
19340;HTU21D;9804;52.350;6.684;2023-09-12T08:01:04;23.29;118.99
19340;HTU21D;9804;52.350;6.684;2023-09-12T08:03:30;23.25;118.99
19340;HTU21D;9804;52.350;6.684;2023-09-12T08:05:57;23.45;118.99
19340;HTU21D;9804;52.350;6.684;2023-09-12T08:08:23;23.58;118.99
19340;HTU21D;9804;52.350;6.684;2023-09-12T08:10:48;23.50;118.99
19340;HTU21D;9804;52.350;6.684;2023-09-12T08:13:14;23.60;118.99
19340;HTU21D;9804;52.350;6.684;2023-09-12T08:15:39;23.71;118.99
19340;HTU21D;9804;52.350;6.684;2023-09-12T08:18:05;23.66;118.99
19340;HTU21D;9804;52.350;6.684;2023-09-12T08:20:30;23.80;118.99
19340;HTU21D;9804;52.350;6.684;2023-09-12T08:22:55;23.84;118.99
19340;HTU21D;9804;52.350;6.684;2023-09-12T08:25:21;23.73;118.99
19340;HTU21D;9804;52.350;6.684;2023-09-12T08:27:46;23.87;118.99
19340;HTU21D;9804;52.350;6.684;2023-09-12T08:30:12;23.94;118.99
19340;HTU21D;9804;52.350;6.684;2023-09-12T08:32:39;24.03;118.99
19340;HTU21D;9804;52.350;6.684;2023-09-12T08:35:08;23.92;118.99
19340;HTU21D;9804;52.350;6.684;2023-09-12T08:37:34;23.98;118.99
19340;HTU21D;9804;52.350;6.684;2023-09-12T08:39:59;23.96;118.99
19340;HTU21D;9804;52.350;6.684;2023-09-12T08:42:26;23.85;118.99
19340;HTU21D;9804;52.350;6.684;2023-09-12T08:44:55;24.03;118.99
19340;HTU21D;9804;52.350;6.684;2023-09-12T08:47:22;23.92;118.99
19340;HTU21D;9804;52.350;6.684;2023-09-12T08:49:49;24.03;106.88
19340;HTU21D;9804;52.350;6.684;2023-09-12T08:52:14;24.05;79.99
19340;HTU21D;9804;52.350;6.684;2023-09-12T08:54:40;24.35;96.33
19340;HTU21D;9804;52.350;6.684;2023-09-12T08:57:06;24.35;12.17
19340;HTU21D;9804;52.350;6.684;2023-09-12T08:59:33;24.58;61.48
19340;HTU21D;9804;52.350;6.684;2023-09-12T09:02:00;24.71;-6.00
19340;HTU21D;9804;52.350;6.684;2023-09-12T09:04:28;24.86;-6.00
19340;HTU21D;9804;52.350;6.684;2023-09-12T09:06:55;24.91;-6.00
19340;HTU21D;9804;52.350;6.684;2023-09-12T09:09:22;25.03;-6.00
19340;HTU21D;9804;52.350;6.684;2023-09-12T09:11:49;25.00;-6.00
19340;HTU21D;9804;52.350;6.684;2023-09-12T09:14:14;24.95;-6.00
19340;HTU21D;9804;52.350;6.684;2023-09-12T09:16:40;24.72;-6.00
19340;HTU21D;9804;52.350;6.684;2023-09-12T09:19:05;24.70;-6.00
19340;HTU21D;9804;52.350;6.684;2023-09-12T09:21:35;24.82;-6.00
19340;HTU21D;9804;52.350;6.684;2023-09-12T09:24:07;24.99;-6.00
19340;HTU21D;9804;52.350;6.684;2023-09-12T09:26:50;24.73;-6.00
19340;HTU21D;9804;52.350;6.684;2023-09-12T09:29:18;24.84;-6.00
19340;HTU21D;9804;52.350;6.684;2023-09-12T09:31:46;24.74;-6.00
19340;HTU21D;9804;52.350;6.684;2023-09-12T09:34:17;24.88;-6.00
19340;HTU21D;9804;52.350;6.684;2023-09-12T09:36:44;24.98;-6.00
19340;HTU21D;9804;52.350;6.684;2023-09-12T09:39:10;24.92;10.91
19340;HTU21D;9804;52.350;6.684;2023-09-12T09:41:37;25.30;-3.85
19340;HTU21D;9804;52.350;6.684;2023-09-12T09:44:05;25.25;-6.00
19340;HTU21D;9804;52.350;6.684;2023-09-12T09:46:31;25.77;-6.00
19340;HTU21D;9804;52.350;6.684;2023-09-12T09:48:57;26.32;-6.00
19340;HTU21D;9804;52.350;6.684;2023-09-12T09:51:24;26.34;-6.00
19340;HTU21D;9804;52.350;6.684;2023-09-12T09:53:53;26.15;-6.00
19340;HTU21D;9804;52.350;6.684;2023-09-12T09:56:24;26.41;-6.00
19340;HTU21D;9804;52.350;6.684;2023-09-12T09:58:55;26.34;-6.00
19340;HTU21D;9804;52.350;6.684;2023-09-12T10:01:27;26.07;-6.00
19340;HTU21D;9804;52.350;6.684;2023-09-12T10:03:58;26.62;-6.00
19340;HTU21D;9804;52.350;6.684;2023-09-12T10:06:26;26.64;-6.00
19340;HTU21D;9804;52.350;6.684;2023-09-12T10:08:53;27.06;-6.00
19340;HTU21D;9804;52.350;6.684;2023-09-12T10:11:22;27.14;-6.00
19340;HTU21D;9804;52.350;6.684;2023-09-12T10:14:07;27.39;-6.00
19340;HTU21D;9804;52.350;6.684;2023-09-12T10:16:39;27.21;-6.00
19340;HTU21D;9804;52.350;6.684;2023-09-12T10:22:26;26.25;-6.00
19340;HTU21D;9804;52.350;6.684;2023-09-12T10:24:53;26.48;-6.00
19340;HTU21D;9804;52.350;6.684;2023-09-12T10:27:20;26.15;-6.00
19340;HTU21D;9804;52.350;6.684;2023-09-12T10:29:47;26.76;-6.00
19340;HTU21D;9804;52.350;6.684;2023-09-12T10:32:15;27.47;-6.00
19340;HTU21D;9804;52.350;6.684;2023-09-12T10:34:44;27.57;-6.00
19340;HTU21D;9804;52.350;6.684;2023-09-12T10:37:17;27.47;-6.00
19340;HTU21D;9804;52.350;6.684;2023-09-12T10:39:45;27.01;-6.00
19340;HTU21D;9804;52.350;6.684;2023-09-12T10:42:12;26.89;-6.00
19340;HTU21D;9804;52.350;6.684;2023-09-12T10:44:38;27.05;-6.00
19340;HTU21D;9804;52.350;6.684;2023-09-12T10:47:04;27.23;-6.00
19340;HTU21D;9804;52.350;6.684;2023-09-12T10:49:30;27.11;-6.00
19340;HTU21D;9804;52.350;6.684;2023-09-12T10:51:56;27.13;-6.00
19340;HTU21D;9804;52.350;6.684;2023-09-12T10:54:38;27.23;-6.00
19340;HTU21D;9804;52.350;6.684;2023-09-12T10:57:11;27.44;-6.00
19340;HTU21D;9804;52.350;6.684;2023-09-12T11:02:34;27.55;-6.00
19340;HTU21D;9804;52.350;6.684;2023-09-12T11:05:03;27.27;-6.00
19340;HTU21D;9804;52.350;6.684;2023-09-12T11:12:44;26.89;-6.00
19340;HTU21D;9804;52.350;6.684;2023-09-12T11:15:10;27.41;-6.00
19340;HTU21D;9804;52.350;6.684;2023-09-12T11:17:48;27.24;-6.00
19340;HTU21D;9804;52.350;6.684;2023-09-12T11:20:15;27.25;-6.00
19340;HTU21D;9804;52.350;6.684;2023-09-12T11:22:45;27.39;-6.00
19340;HTU21D;9804;52.350;6.684;2023-09-12T11:25:25;27.51;-6.00
19340;HTU21D;9804;52.350;6.684;2023-09-12T11:30:16;27.04;-6.00
19340;HTU21D;9804;52.350;6.684;2023-09-12T11:32:45;27.32;-6.00
19340;HTU21D;9804;52.350;6.684;2023-09-12T11:35:11;27.73;-6.00
19340;HTU21D;9804;52.350;6.684;2023-09-12T11:37:36;27.56;-6.00
19340;HTU21D;9804;52.350;6.684;2023-09-12T11:42:42;27.38;-6.00
19340;HTU21D;9804;52.350;6.684;2023-09-12T11:45:11;27.25;-6.00
19340;HTU21D;9804;52.350;6.684;2023-09-12T11:47:43;27.61;-6.00
19340;HTU21D;9804;52.350;6.684;2023-09-12T11:50:28;27.68;-6.00
19340;HTU21D;9804;52.350;6.684;2023-09-12T11:53:10;27.74;-6.00
19340;HTU21D;9804;52.350;6.684;2023-09-12T11:55:50;28.18;-6.00
19340;HTU21D;9804;52.350;6.684;2023-09-12T11:58:19;28.52;-6.00
19340;HTU21D;9804;52.350;6.684;2023-09-12T12:00:46;28.69;-6.00
19340;HTU21D;9804;52.350;6.684;2023-09-12T12:03:12;27.85;-6.00
19340;HTU21D;9804;52.350;6.684;2023-09-12T12:05:38;27.84;-6.00
19340;HTU21D;9804;52.350;6.684;2023-09-12T12:08:07;27.94;-6.00
19340;HTU21D;9804;52.350;6.684;2023-09-12T12:10:32;27.89;-6.00
19340;HTU21D;9804;52.350;6.684;2023-09-12T12:12:58;27.64;-6.00
19340;HTU21D;9804;52.350;6.684;2023-09-12T12:15:23;27.27;-6.00
19340;HTU21D;9804;52.350;6.684;2023-09-12T12:17:49;27.09;-6.00
19340;HTU21D;9804;52.350;6.684;2023-09-12T12:20:19;27.34;-6.00
19340;HTU21D;9804;52.350;6.684;2023-09-12T12:22:44;27.52;-6.00
19340;HTU21D;9804;52.350;6.684;2023-09-12T12:25:10;27.63;-6.00
19340;HTU21D;9804;52.350;6.684;2023-09-12T12:27:37;27.82;-6.00
19340;HTU21D;9804;52.350;6.684;2023-09-12T12:30:08;28.50;-6.00
19340;HTU21D;9804;52.350;6.684;2023-09-12T12:32:36;28.77;-6.00
19340;HTU21D;9804;52.350;6.684;2023-09-12T12:35:02;28.56;-6.00
19340;HTU21D;9804;52.350;6.684;2023-09-12T12:37:31;28.68;-6.00
19340;HTU21D;9804;52.350;6.684;2023-09-12T12:39:57;29.09;-6.00
19340;HTU21D;9804;52.350;6.684;2023-09-12T12:42:22;28.90;-6.00
19340;HTU21D;9804;52.350;6.684;2023-09-12T12:44:56;29.43;-6.00
19340;HTU21D;9804;52.350;6.684;2023-09-12T12:47:21;28.85;-6.00
19340;HTU21D;9804;52.350;6.684;2023-09-12T12:49:51;29.07;-6.00
19340;HTU21D;9804;52.350;6.684;2023-09-12T12:52:22;29.43;-6.00
19340;HTU21D;9804;52.350;6.684;2023-09-12T12:54:47;29.30;-6.00
19340;HTU21D;9804;52.350;6.684;2023-09-12T12:57:18;29.29;-6.00
19340;HTU21D;9804;52.350;6.684;2023-09-12T12:59:50;29.39;-6.00
19340;HTU21D;9804;52.350;6.684;2023-09-12T13:02:16;29.81;-6.00
19340;HTU21D;9804;52.350;6.684;2023-09-12T13:04:42;29.20;-6.00
19340;HTU21D;9804;52.350;6.684;2023-09-12T13:07:07;28.98;-6.00
19340;HTU21D;9804;52.350;6.684;2023-09-12T13:09:33;29.17;-6.00
19340;HTU21D;9804;52.350;6.684;2023-09-12T13:11:58;28.94;-6.00
19340;HTU21D;9804;52.350;6.684;2023-09-12T13:14:24;28.84;-6.00
19340;HTU21D;9804;52.350;6.684;2023-09-12T13:16:56;28.73;-6.00
19340;HTU21D;9804;52.350;6.684;2023-09-12T13:19:21;28.37;-6.00
19340;HTU21D;9804;52.350;6.684;2023-09-12T13:21:47;28.20;-6.00
19340;HTU21D;9804;52.350;6.684;2023-09-12T13:24:12;27.98;-6.00
19340;HTU21D;9804;52.350;6.684;2023-09-12T13:26:38;28.02;-6.00
19340;HTU21D;9804;52.350;6.684;2023-09-12T13:29:05;27.98;-6.00
19340;HTU21D;9804;52.350;6.684;2023-09-12T13:31:30;27.98;-6.00
19340;HTU21D;9804;52.350;6.684;2023-09-12T13:33:57;27.74;-6.00
19340;HTU21D;9804;52.350;6.684;2023-09-12T13:36:22;27.91;-6.00
19340;HTU21D;9804;52.350;6.684;2023-09-12T13:38:49;27.95;-6.00
19340;HTU21D;9804;52.350;6.684;2023-09-12T13:41:17;27.95;-6.00
19340;HTU21D;9804;52.350;6.684;2023-09-12T13:43:43;27.94;-6.00
19340;HTU21D;9804;52.350;6.684;2023-09-12T13:46:11;27.81;-6.00
19340;HTU21D;9804;52.350;6.684;2023-09-12T13:48:37;27.87;-6.00
19340;HTU21D;9804;52.350;6.684;2023-09-12T13:51:03;27.85;-6.00
19340;HTU21D;9804;52.350;6.684;2023-09-12T13:53:28;27.99;-6.00
19340;HTU21D;9804;52.350;6.684;2023-09-12T13:55:53;28.04;-6.00
19340;HTU21D;9804;52.350;6.684;2023-09-12T13:58:22;28.43;-6.00
19340;HTU21D;9804;52.350;6.684;2023-09-12T14:00:47;28.77;-6.00
19340;HTU21D;9804;52.350;6.684;2023-09-12T14:03:13;29.32;-6.00
19340;HTU21D;9804;52.350;6.684;2023-09-12T14:05:39;28.97;-6.00
19340;HTU21D;9804;52.350;6.684;2023-09-12T14:08:04;29.28;-6.00
19340;HTU21D;9804;52.350;6.684;2023-09-12T14:10:30;29.22;-6.00
19340;HTU21D;9804;52.350;6.684;2023-09-12T14:12:55;28.79;-6.00
19340;HTU21D;9804;52.350;6.684;2023-09-12T14:15:21;28.85;-6.00
19340;HTU21D;9804;52.350;6.684;2023-09-12T14:17:46;28.80;-6.00
19340;HTU21D;9804;52.350;6.684;2023-09-12T14:20:11;28.84;-6.00
19340;HTU21D;9804;52.350;6.684;2023-09-12T14:22:41;29.08;-6.00
19340;HTU21D;9804;52.350;6.684;2023-09-12T14:25:06;28.97;-6.00
19340;HTU21D;9804;52.350;6.684;2023-09-12T14:27:33;29.16;-6.00
19340;HTU21D;9804;52.350;6.684;2023-09-12T14:29:58;28.95;-6.00
19340;HTU21D;9804;52.350;6.684;2023-09-12T14:32:25;29.09;-6.00
19340;HTU21D;9804;52.350;6.684;2023-09-12T14:34:50;29.44;-6.00
19340;HTU21D;9804;52.350;6.684;2023-09-12T14:37:16;29.08;-6.00
19340;HTU21D;9804;52.350;6.684;2023-09-12T14:39:41;29.02;-6.00
19340;HTU21D;9804;52.350;6.684;2023-09-12T14:42:06;29.41;-6.00
19340;HTU21D;9804;52.350;6.684;2023-09-12T14:44:34;29.34;-6.00
19340;HTU21D;9804;52.350;6.684;2023-09-12T14:47:00;29.33;-6.00
19340;HTU21D;9804;52.350;6.684;2023-09-12T14:49:25;29.51;-6.00
19340;HTU21D;9804;52.350;6.684;2023-09-12T14:51:50;29.29;-6.00
19340;HTU21D;9804;52.350;6.684;2023-09-12T14:54:16;29.41;-6.00
19340;HTU21D;9804;52.350;6.684;2023-09-12T14:56:41;29.45;-6.00
19340;HTU21D;9804;52.350;6.684;2023-09-12T14:59:07;29.51;-6.00
19340;HTU21D;9804;52.350;6.684;2023-09-12T15:01:33;29.05;-6.00
19340;HTU21D;9804;52.350;6.684;2023-09-12T15:04:00;29.19;-6.00
19340;HTU21D;9804;52.350;6.684;2023-09-12T15:06:26;29.50;-6.00
19340;HTU21D;9804;52.350;6.684;2023-09-12T15:08:52;29.20;-6.00
19340;HTU21D;9804;52.350;6.684;2023-09-12T15:11:17;29.16;-6.00
19340;HTU21D;9804;52.350;6.684;2023-09-12T15:13:42;29.19;-6.00
19340;HTU21D;9804;52.350;6.684;2023-09-12T15:16:09;29.26;-6.00
19340;HTU21D;9804;52.350;6.684;2023-09-12T15:18:35;29.38;-6.00
19340;HTU21D;9804;52.350;6.684;2023-09-12T15:21:01;29.31;-6.00
19340;HTU21D;9804;52.350;6.684;2023-09-12T15:23:26;29.63;-6.00
19340;HTU21D;9804;52.350;6.684;2023-09-12T15:25:53;29.62;-6.00
19340;HTU21D;9804;52.350;6.684;2023-09-12T15:28:19;29.80;-6.00
19340;HTU21D;9804;52.350;6.684;2023-09-12T15:30:44;29.71;-6.00
19340;HTU21D;9804;52.350;6.684;2023-09-12T15:33:10;29.53;-6.00
19340;HTU21D;9804;52.350;6.684;2023-09-12T15:35:36;29.30;-6.00
19340;HTU21D;9804;52.350;6.684;2023-09-12T15:38:01;29.27;-6.00
19340;HTU21D;9804;52.350;6.684;2023-09-12T15:40:27;29.34;-6.00
19340;HTU21D;9804;52.350;6.684;2023-09-12T15:42:52;29.43;-6.00